Flight Track Log - Related Links

Times and Time Zones

All times are in EDT time to prevent confusion due to time zone crossing. See the FSR411 flight status page for this flight to view local times or setup timezone preferences in your user account.

Time Position Orientation Groundspeed Altitude Reporting Facility
EDT Latitude Longitude Course Direction KTS MPH feet Rate Location/Type
Wed 07:07:17 AM 40.0892 -88.2644 75° East 263 303 4,700  Level Chicago Center
Wed 07:08:18 AM 40.1050 -88.1906 74° East 224 258 8,100 2,803 Climbing Chicago Center
Wed 07:09:19 AM 40.1342 -88.1058 66° East 284 327 10,400 2,508 Climbing Chicago Center
Wed 07:10:20 AM 40.1689 -87.9878 69° East 347 399 13,200 3,148 Climbing Chicago Center
Wed 07:11:21 AM 40.2158 -87.8333 68° East 391 450 16,800 3,197 Climbing Chicago Center
Wed 07:12:00 AM 40.2584 -87.5580 75° East  Level FlightAware Approximate
Wed 07:12:22 AM 40.2586 -87.6939 68° East 412 474 19,700  Level Chicago Center
Wed 07:13:23 AM 40.3025 -87.5506 68° East 420 483 22,700 2,852 Climbing Chicago Center
Wed 07:14:24 AM 40.3472 -87.3992 69° East 423 487 25,500 1,967 Climbing Chicago Center
Wed 07:15:25 AM 40.3928 -87.2489 68° East 439 505 26,700 738 Climbing Chicago Center
Wed 07:16:26 AM 40.4400 -87.0869 69° East 469 540 27,000 148 Climbing Chicago Center
Wed 07:17:27 AM 40.4883 -86.9217 69° East 479 551 27,000  Level Chicago Center
Wed 07:18:29 AM 40.5375 -86.7544 69° East 484 557 27,000  Level Chicago Center
Wed 07:19:30 AM 40.5872 -86.5867 69° East 488 562 27,000  Level Chicago Center
Wed 07:20:31 AM 40.6356 -86.4181 69° East 489 563 27,000  Level Chicago Center
Wed 07:21:33 AM 40.6839 -86.2489 69° East 490 564 27,000  Level Chicago Center
Wed 07:22:34 AM 40.7381 -86.0619 69° East 490 564 27,000  Level Chicago Center
Wed 07:23:35 AM 40.7847 -85.8922 70° East 491 565 27,000 -829 Level Chicago Center
Wed 07:24:37 AM 40.8300 -85.7300 70° East 478 550 25,300 -1,463 Descending Chicago Center
Wed 07:25:38 AM 40.8714 -85.5811 70° East 439 505 24,000 -1,024 Descending Chicago Center
Wed 07:26:40 AM 40.9136 -85.4281 70° East 443 510 23,200 -976 Descending Chicago Center
Wed 07:27:41 AM 40.9658 -85.2422 70° East 449 517 22,000 -1,561 Descending Chicago Center
Wed 07:28:43 AM 41.0100 -85.0889 69° East 451 519 20,000 -1,951 Descending Chicago Center
Wed 07:29:44 AM 41.0569 -84.9444 67° East 435 501 18,000 -1,415 Descending Chicago Center
Wed 07:30:46 AM 41.1000 -84.8000 68° East 428 493 17,100 -439 Descending Chicago Center
Wed 07:31:47 AM 41.1428 -84.6611 68° East 415 478 17,100 -58 Level Chicago Center
Wed 07:32:30 AM 41.1772 -84.5483 68° East 417 480 17,000 -57 Descending Cleveland Center
Wed 07:33:32 AM 41.2217 -84.4028 68° East 422 486 17,000  Level Cleveland Center
Wed 07:34:33 AM 41.2669 -84.2564 68° East 426 490 17,000 -683 Level Cleveland Center
Wed 07:35:35 AM 41.3089 -84.1164 68° East 415 478 15,600 -1,403 Descending Cleveland Center
Wed 07:36:37 AM 41.3503 -83.9769 68° East 400 460 14,100 -1,463 Descending Cleveland Center
Wed 07:37:38 AM 41.3914 -83.8394 68° East 400 460 12,600 -1,512 Descending Cleveland Center
Wed 07:38:40 AM 41.4394 -83.6819 68° East 388 447 11,000 -1,210 Descending Cleveland Center
Wed 07:39:42 AM 41.4822 -83.5558 66° East 376 433 10,100 -594 Descending Cleveland Center
Wed 07:40:21 AM 41.5139 -83.4797 61° Northeast 374 430 10,000 -98 Descending Cleveland Center
Wed 07:40:43 AM 41.5317 -83.4375 61° Northeast 373 429 10,000  Level Cleveland Center
Wed 07:41:45 AM 41.5792 -83.3183 62° Northeast 369 425 10,000 74 Level Cleveland Center
Wed 07:42:04 AM 41.5978 -83.2681 64° Northeast 363 418 10,100  Climbing Cleveland Center
Wed 07:42:47 AM 41.6247 -83.2003 62° Northeast 365 420 10,000 -57 Descending Cleveland Center
Wed 07:43:49 AM 41.6678 -83.0919 62° Northeast 339 390 10,000  Level Cleveland Center
Wed 07:44:00 AM 41.6811 -83.0561 64° Northeast 311 358 10,000  Level Cleveland Center
Wed 07:44:50 AM 41.7142 -82.9728 62° Northeast 308 354 10,000 -110 Level Cleveland Center
Wed 07:45:49 AM 41.7686 -82.8944 47° Northeast 281 323 9,800 -774 Descending Cleveland Center
Wed 07:46:54 AM 41.8336 -82.8281 37° Northeast 293 337 8,400 -1,381 Descending Cleveland Center
Wed 07:47:55 AM 41.9006 -82.7656 35° Northeast 293 337 6,900 -1,525 Descending Cleveland Center
Wed 07:48:52 AM 41.9711 -82.7894 346° North 262 302 5,400 -831 Descending Cleveland Center
Wed 07:50:05 AM 42.0494 -82.8336 337° Northwest 246 283 5,100 -186 Descending Cleveland Center
Wed 07:51:01 AM 42.1003 -82.8567 341° North 250 288 5,000 -55 Descending Cleveland Center
Wed 07:51:54 AM 42.1689 -82.8917 339° North 247 284 5,000 -556 Level Cleveland Center
Wed 07:52:49 AM 42.2206 -82.9014 352° North 188 216 4,000 -1,114 Descending Cleveland Center
Wed 07:53:04 AM 42.2300 -82.8997 North 202 232 3,700 -885 Descending Cleveland Center
Wed 07:53:50 AM 42.2692 -82.8936 North 166 191 3,100 -677 Descending Cleveland Center
Wed 07:54:06 AM 42.2789 -82.8914 10° North 183 211 3,000 -154 Descending Cleveland Center
Wed 07:55:08 AM 42.3142 -82.9144 334° Northwest 149 171 2,900 -390 Descending Cleveland Center
Wed 07:56:09 AM 42.3442 -82.9419 326° Northwest 136 157 2,200 -634 Descending Cleveland Center
Wed 07:57:11 AM 42.3708 -82.9692 323° Northwest 129 148 1,600 -658 Descending Cleveland Center
Wed 07:57:22 AM 42.3781 -82.9789 315° West 105 121 1,400 -581 Descending Cleveland Center
Wed 07:58:13 AM 42.3953 -82.9942 327° Northwest 120 138 1,000 -471 Descending Cleveland Center
Wed 08:00:00 AM 42.4000 -83.0000 North  Level FlightAware Approximate
Wed 08:07:00 AM 42.4093 -83.0102 North  Level Estimated

Login

Don't have an account? Register now (free) for customized features, flight alerts, and more!